Terminal Aerodrome Forecast
Issued by NWS Grand Forks, ND

Home | Current Version | Previous Version | Graphics & Text | Print | Product List | Glossary On
Versions: 1 2 3 4 5 6 7 8 9 10 11 12 13 14 15
498
FTUS43 KFGF 240520
TAFGFK
TAF
KGFK 240520Z 2406/2506 30010KT P6SM BKN050
     FM240800 31010KT P6SM BKN035
     FM241200 31012G22KT P6SM BKN025
     FM241900 32016G26KT P6SM VCSH BKN030=

USA.gov is the U.S. government's official web portal to all federal, state and local government web resources and services.